^^
Saratoga-Weather Station Historical Data
Daily Summary for April 2, 2020 Units:  English    Metric   Both
Daily Weekly Monthly Yearly Custom
  High: Low: Average:
Temperature: 38.8 °F 35.1 °F 36.9 °F
Dew Point: 38.1 °F 33.8 °F 35.6 °F
Humidity: 97% 91% 95%
Wind Speed: 6mph 0mph 0.4mph
Wind Gust: 7mph - -
Wind- - East
Pressure: 30.1 in 29.9 in -
Precipitation: 0.02 in    
Historical Graphs
 
 
Tabular Data for April 2, 2020
Time Temperature Dew Point Pressure Wind Wind Speed Wind Gust Humidity Rainfall Rate (Hourly) solar
00:04 38.8 °F 38.1 °F 30.1 in East 0.9 mph 2 mph 97% 0 in 0 W/m2
00:09 38.8 °F 38.1 °F 30.1 in East 2 mph 4 mph 97% 0 in 0 W/m2
00:14 38.8 °F 38.1 °F 30.1 in ENE 0.9 mph 4 mph 97% 0 in 0 W/m2
00:19 38.8 °F 38.1 °F 30.1 in ESE 0.9 mph 3 mph 97% 0 in 0 W/m2
00:24 38.7 °F 37.9 °F 30.1 in East 2 mph 2 mph 97% 0 in 0 W/m2
00:29 38.7 °F 37.6 °F 30.1 in East 0.9 mph 2 mph 96% 0 in 0 W/m2
00:34 38.7 °F 37.6 °F 30.1 in Calm     96% 0 in 0 W/m2
00:39 38.7 °F 37.6 °F 30.1 in ESE 0.9 mph 3 mph 96% 0 in 0 W/m2
00:44 38.7 °F 37.6 °F 30.1 in Calm   2 mph 96% 0 in 0 W/m2
00:49 38.7 °F 37.6 °F 30.1 in East 0.9 mph 1 mph 96% 0 in 0 W/m2
00:54 38.7 °F 37.6 °F 30.1 in ENE 0.9 mph 2 mph 96% 0 in 0 W/m2
00:59 38.7 °F 37.6 °F 30.1 in Calm     96% 0 in 0 W/m2
01:04 38.7 °F 37.6 °F 30.1 in Calm     96% 0 in 0 W/m2
01:09 38.7 °F 37.6 °F 30.1 in ENE 0.9 mph 1 mph 96% 0 in 0 W/m2
01:14 38.5 °F 37.4 °F 30.1 in SE 0.9 mph 2 mph 96% 0 in 0 W/m2
01:19 38.5 °F 37.4 °F 30.1 in Calm   1 mph 96% 0 in 0 W/m2
01:24 38.5 °F 37.4 °F 30.1 in Calm   3 mph 96% 0 in 0 W/m2
01:29 38.5 °F 37.4 °F 30.1 in Calm   1 mph 96% 0 in 0 W/m2
01:34 38.3 °F 37.2 °F 30.1 in Calm   3 mph 96% 0 in 0 W/m2
01:39 38.1 °F 37 °F 30.1 in Calm     96% 0 in 0 W/m2
01:44 38.1 °F 37 °F 30.1 in Calm     96% 0 in 0 W/m2
01:49 38.1 °F 37 °F 30.1 in Calm     96% 0 in 0 W/m2
01:54 37.9 °F 36.9 °F 30.1 in Calm     96% 0 in 0 W/m2
01:59 37.9 °F 36.9 °F 30.1 in Calm   3 mph 96% 0 in 0 W/m2
02:04 37.9 °F 36.9 °F 30.1 in Calm   1 mph 96% 0 in 0 W/m2
02:09 37.9 °F 36.9 °F 30.1 in Calm     96% 0 in 0 W/m2
02:14 37.9 °F 36.9 °F 30.1 in Calm     96% 0 in 0 W/m2
02:19 37.9 °F 36.9 °F 30.1 in Calm     96% 0 in 0 W/m2
02:24 37.9 °F 36.9 °F 30.1 in Calm     96% 0 in 0 W/m2
02:29 37.8 °F 36.7 °F 30.1 in Calm     96% 0 in 0 W/m2
02:34 37.6 °F 36.5 °F 30.1 in Calm     96% 0 in 0 W/m2
02:39 37.4 °F 36.3 °F 30.1 in Calm     96% 0 in 0 W/m2
02:44 37.2 °F 36.1 °F 30.1 in Calm     96% 0 in 0 W/m2
02:49 37.2 °F 36.1 °F 30.1 in Calm   2 mph 96% 0 in 0 W/m2
02:54 37.2 °F 36.1 °F 30.1 in East 0.9 mph 2 mph 96% 0 in 0 W/m2
02:59 37.4 °F 36.3 °F 30.1 in SE 0.9 mph 3 mph 96% 0 in 0 W/m2
03:04 37.4 °F 36.3 °F 30.1 in East 0.9 mph 7 mph 96% 0 in 0 W/m2
03:09 37.2 °F 36.1 °F 30.1 in SE 2 mph 3 mph 96% 0 in 0 W/m2
03:14 37.2 °F 36.1 °F 30.1 in ESE 0.9 mph 5 mph 96% 0 in 0 W/m2
03:19 37.2 °F 36.1 °F 30.1 in ESE 0.9 mph 2 mph 96% 0 in 0 W/m2
03:24 37 °F 36 °F 30.1 in Calm   3 mph 96% 0 in 0 W/m2
03:30 37 °F 36 °F 30.1 in Calm   1 mph 96% 0 in 0 W/m2
03:35 36.9 °F 35.8 °F 30.1 in Calm   3 mph 96% 0 in 0 W/m2
03:40 36.9 °F 35.8 °F 30.1 in East 0.9 mph 2 mph 96% 0 in 0 W/m2
03:45 36.9 °F 35.8 °F 30.1 in Calm   2 mph 96% 0 in 0 W/m2
03:50 36.9 °F 35.8 °F 30.1 in Calm     96% 0 in 0 W/m2
03:55 36.7 °F 35.6 °F 30.1 in Calm   2 mph 96% 0 in 0 W/m2
04:00 36.7 °F 35.6 °F 30.1 in Calm     96% 0 in 0 W/m2
04:05 36.7 °F 35.6 °F 30.1 in Calm   1 mph 96% 0 in 0 W/m2
04:10 36.7 °F 35.6 °F 30.1 in Calm     96% 0 in 0 W/m2
04:15 36.7 °F 35.6 °F 30.1 in Calm     96% 0 in 0 W/m2
04:20 36.7 °F 35.6 °F 30.1 in Calm     96% 0 in 0 W/m2
04:25 36.9 °F 35.8 °F 30.1 in Calm     96% 0 in 0 W/m2
04:30 36.7 °F 35.6 °F 30.1 in Calm     96% 0 in 0 W/m2
04:35 36.9 °F 35.8 °F 30.1 in Calm     96% 0 in 0 W/m2
04:40 36.9 °F 35.8 °F 30.1 in Calm   1 mph 96% 0 in 0 W/m2
04:45 36.9 °F 35.8 °F 30.1 in Calm     96% 0 in 0 W/m2
04:50 36.9 °F 35.8 °F 30.1 in Calm     96% 0 in 0 W/m2
04:55 36.9 °F 35.8 °F 30.1 in Calm     96% 0 in 0 W/m2
05:00 36.9 °F 35.8 °F 30.1 in Calm     96% 0 in 0 W/m2
05:05 36.9 °F 35.8 °F 30.1 in Calm     96% 0 in 0 W/m2
05:10 36.9 °F 35.8 °F 30.1 in Calm     96% 0 in 0 W/m2
05:15 36.9 °F 35.8 °F 30.1 in Calm     96% 0 in 0 W/m2
05:20 36.9 °F 35.8 °F 30.1 in Calm     96% 0 in 0 W/m2
05:25 36.9 °F 35.8 °F 30.1 in Calm     96% 0 in 0 W/m2
05:30 36.9 °F 35.8 °F 30.1 in Calm     96% 0 in 0 W/m2
05:35 36.9 °F 35.8 °F 30.1 in Calm     96% 0 in 0 W/m2
05:40 36.9 °F 36.1 °F 30.1 in Calm     97% 0 in 0 W/m2
05:45 36.9 °F 36.1 °F 30.1 in Calm     97% 0 in 0 W/m2
05:50 36.9 °F 36.1 °F 30.1 in Calm     97% 0 in 0 W/m2
05:55 36.9 °F 36.1 °F 30.1 in Calm     97% 0 in 0 W/m2
06:00 37 °F 36.3 °F 30.1 in Calm     97% 0 in 0 W/m2
06:05 37 °F 36.3 °F 30.1 in Calm     97% 0 in 0 W/m2
06:10 37 °F 36.3 °F 30.1 in ESE 0.9 mph 1 mph 97% 0 in 0 W/m2
06:15 37 °F 36.3 °F 30.1 in Calm     97% 0 in 0 W/m2
06:20 37 °F 36.3 °F 30.1 in Calm   1 mph 97% 0 in 0 W/m2
06:25 37 °F 36.3 °F 30.1 in Calm     97% 0 in 0 W/m2
06:30 37 °F 36.3 °F 30.1 in Calm     97% 0 in 0 W/m2
06:35 36.9 °F 36.1 °F 30.1 in Calm     97% 0 in 0 W/m2
06:40 37 °F 36.3 °F 30.1 in Calm   2 mph 97% 0 in 0 W/m2
06:45 37 °F 36.3 °F 30 in Calm   1 mph 97% 0 in 0 W/m2
06:50 37 °F 36.3 °F 30 in Calm   1 mph 97% 0 in 0 W/m2
06:55 37 °F 36.3 °F 30 in Calm     97% 0 in 0 W/m2
07:00 37 °F 36.3 °F 30 in Calm   1 mph 97% 0 in 0 W/m2
07:05 37 °F 36.3 °F 30 in Calm   1 mph 97% 0 in 0 W/m2
07:10 37 °F 36.3 °F 30 in Calm     97% 0 in 0 W/m2
07:15 37 °F 36.3 °F 30 in Calm   1 mph 97% 0 in 0 W/m2
07:20 37 °F 36.3 °F 30 in Calm     97% 0 in 0 W/m2
07:25 37 °F 36.3 °F 30 in Calm   2 mph 97% 0 in 0 W/m2
07:30 37 °F 36.3 °F 30 in Calm   1 mph 97% 0 in 0 W/m2
07:35 37 °F 36.3 °F 30 in Calm   2 mph 97% 0 in 0 W/m2
07:40 37 °F 36.3 °F 30 in Calm     97% 0 in 0 W/m2
07:45 37 °F 36.3 °F 30 in ESE 0.9 mph 2 mph 97% 0 in 0 W/m2
07:50 37 °F 36.3 °F 30 in Calm   2 mph 97% 0 in 0 W/m2
07:55 37 °F 36 °F 30 in Calm   1 mph 96% 0 in 0 W/m2
08:00 37 °F 36 °F 30 in Calm     96% 0 in 0 W/m2
08:05 37 °F 36 °F 30 in Calm     96% 0 in 0 W/m2
08:10 37 °F 36 °F 30 in Calm     96% 0 in 0 W/m2
08:15 37 °F 36 °F 30 in Calm     96% 0 in 0 W/m2
08:20 37 °F 36 °F 30 in Calm     96% 0 in 0 W/m2
08:25 37 °F 36 °F 30 in Calm   1 mph 96% 0 in 0 W/m2
08:30 37 °F 36.3 °F 30 in Calm     97% 0 in 0 W/m2
08:35 37 °F 36.3 °F 30 in ESE 0.9 mph 1 mph 97% 0 in 0 W/m2
10:00 37.6 °F 36.5 °F 30 in ESE 0.9 mph 2 mph 96% 0 in 26 W/m2
10:05 37.6 °F 36.5 °F 30 in Calm     96% 0 in 30 W/m2
10:10 37.6 °F 36.5 °F 30 in ESE 0.9 mph 2 mph 96% 0 in 18 W/m2
10:15 37.8 °F 36.7 °F 30 in Calm   1 mph 96% 0 in 35 W/m2
10:20 37.8 °F 36.7 °F 30 in Calm   1 mph 96% 0 in 49 W/m2
10:25 37.8 °F 36.7 °F 30 in Calm   1 mph 96% 0 in 49 W/m2
10:30 37.8 °F 36.7 °F 30 in East 0.9 mph 4 mph 96% 0 in 39 W/m2
10:35 37.8 °F 36.7 °F 30 in ESE 0.9 mph 2 mph 96% 0 in 32 W/m2
10:40 37.8 °F 36.7 °F 30 in Calm   4 mph 96% 0 in 39 W/m2
10:45 37.9 °F 36.9 °F 30 in NE 0.9 mph 2 mph 96% 0 in 44 W/m2
10:50 37.9 °F 36.7 °F 30 in NE 0.9 mph 4 mph 95% 0 in 35 W/m2
10:55 37.9 °F 36.7 °F 30 in East 2 mph 2 mph 95% 0 in 44 W/m2
11:00 38.1 °F 36.9 °F 30 in ESE 2 mph 3 mph 95% 0 in 49 W/m2
11:05 38.1 °F 36.9 °F 30 in ESE 0.9 mph 2 mph 95% 0 in 54 W/m2
11:10 38.1 °F 36.9 °F 30 in East 0.9 mph 4 mph 95% 0 in 51 W/m2
11:15 38.1 °F 36.5 °F 30 in Calm   2 mph 94% 0 in 42 W/m2
11:20 38.3 °F 36.7 °F 30 in Calm   4 mph 94% 0 in 56 W/m2
11:25 38.3 °F 36.7 °F 30 in East 2 mph 2 mph 94% 0 in 44 W/m2
11:30 38.3 °F 36.7 °F 30 in East 2.9 mph 4 mph 94% 0 in 44 W/m2
11:35 38.3 °F 36.7 °F 30 in ESE 0.9 mph 3 mph 94% 0 in 39 W/m2
11:40 38.3 °F 36.7 °F 30 in East 0.9 mph 2 mph 94% 0 in 37 W/m2
11:45 38.1 °F 36.3 °F 30 in Calm   1 mph 93% 0 in 42 W/m2
11:50 38.1 °F 36.3 °F 30 in Calm   4 mph 93% 0 in 39 W/m2
11:55 38.1 °F 36.3 °F 30 in Calm   2 mph 93% 0 in 33 W/m2
12:00 38.1 °F 36.3 °F 30 in Calm   4 mph 93% 0 in 37 W/m2
12:05 38.1 °F 36.3 °F 30 in NE 2 mph 4 mph 93% 0 in 39 W/m2
12:10 38.1 °F 36.3 °F 30 in Calm   3 mph 93% 0 in 23 W/m2
12:15 38.1 °F 36.3 °F 30 in Calm   4 mph 93% 0 in 28 W/m2
12:20 38.1 °F 36.3 °F 30 in East 2 mph 2 mph 93% 0 in 26 W/m2
12:25 38.1 °F 36.3 °F 30 in East 0.9 mph 2 mph 93% 0 in 28 W/m2
12:30 38.1 °F 36.3 °F 30 in Calm   2 mph 93% 0 in 28 W/m2
12:35 38.1 °F 36.3 °F 30 in East 2.9 mph 6 mph 93% 0 in 26 W/m2
12:40 37.9 °F 35.8 °F 30 in ESE 0.9 mph 5 mph 92% 0 in 28 W/m2
12:45 37.9 °F 35.8 °F 30 in East 0.9 mph 3 mph 92% 0 in 28 W/m2
12:50 37.9 °F 35.8 °F 30 in East 2 mph 2 mph 92% 0 in 30 W/m2
12:55 37.8 °F 35.6 °F 30 in East 0.9 mph 3 mph 92% 0 in 32 W/m2
13:01 37.8 °F 35.6 °F 30 in ENE 0.9 mph 1 mph 92% 0 in 28 W/m2
13:06 37.8 °F 35.6 °F 30 in SE 2 mph 3 mph 92% 0 in 26 W/m2
13:11 37.8 °F 35.6 °F 30 in East 4 mph 4 mph 92% 0 in 25 W/m2
13:16 37.8 °F 35.6 °F 30 in ESE 0.9 mph 1 mph 92% 0 in 25 W/m2
13:21 37.8 °F 35.6 °F 30 in East 2 mph 2 mph 92% 0 in 26 W/m2
13:26 37.8 °F 35.6 °F 30 in East 2 mph 3 mph 92% 0 in 26 W/m2
13:31 37.8 °F 35.6 °F 30 in ENE 2.9 mph 3 mph 92% 0 in 26 W/m2
13:36 37.8 °F 35.4 °F 30 in Calm   3 mph 91% 0 in 25 W/m2
13:41 37.8 °F 35.6 °F 30 in Calm   1 mph 92% 0 in 26 W/m2
13:46 37.8 °F 35.6 °F 30 in Calm   3 mph 92% 0 in 26 W/m2
13:51 37.8 °F 35.6 °F 30 in East 2 mph 2 mph 92% 0 in 26 W/m2
13:56 37.8 °F 35.6 °F 30 in ENE 0.9 mph 2 mph 92% 0 in 28 W/m2
14:01 37.8 °F 35.6 °F 30 in Calm   1 mph 92% 0 in 25 W/m2
14:06 37.8 °F 35.6 °F 30 in Calm   1 mph 92% 0 in 25 W/m2
14:11 37.8 °F 35.6 °F 30 in SE 2 mph 2 mph 92% 0 in 25 W/m2
14:16 37.8 °F 35.6 °F 30 in Calm   1 mph 92% 0 in 23 W/m2
14:21 37.8 °F 35.6 °F 30 in Calm     92% 0 in 21 W/m2
14:26 37.6 °F 35.4 °F 30 in ESE 0.9 mph 2 mph 92% 0 in 21 W/m2
14:31 37.6 °F 35.4 °F 30 in Calm     92% 0 in 21 W/m2
14:36 37.6 °F 35.4 °F 30 in ESE 0.9 mph 2 mph 92% 0 in 19 W/m2
14:43 37.6 °F 35.4 °F 30 in Calm   2 mph 92% 0 in 19 W/m2
14:46 37.4 °F 35.2 °F 30 in Calm   3 mph 92% 0 in 18 W/m2
14:51 37.4 °F 35.2 °F 30 in ESE 0.9 mph 1 mph 92% 0 in 16 W/m2
14:56 37.4 °F 35.2 °F 30 in Calm   1 mph 92% 0 in 19 W/m2
15:01 37.2 °F 35.1 °F 30 in ESE 0.9 mph 1 mph 92% 0 in 19 W/m2
15:06 37.2 °F 35.1 °F 30 in Calm   1 mph 92% 0 in 16 W/m2
15:11 37.2 °F 35.1 °F 30 in Calm     92% 0 in 18 W/m2
15:16 37.2 °F 35.1 °F 30 in Calm   1 mph 92% 0 in 19 W/m2
15:21 37.2 °F 35.1 °F 30 in ESE 2 mph 2 mph 92% 0 in 23 W/m2
15:26 37.2 °F 35.1 °F 30 in East 2 mph 3 mph 92% 0 in 21 W/m2
15:31 37.2 °F 35.1 °F 30 in Calm     92% 0 in 18 W/m2
15:36 37.2 °F 35.1 °F 30 in East 0.9 mph 3 mph 92% 0 in 14 W/m2
15:41 37.2 °F 35.1 °F 30 in Calm   3 mph 92% 0 in 12 W/m2
15:46 37.2 °F 35.1 °F 30 in East 0.9 mph 1 mph 92% 0 in 16 W/m2
15:51 37.2 °F 35.1 °F 30 in Calm   2 mph 92% 0 in 19 W/m2
15:56 37.2 °F 35.1 °F 30 in ESE 0.9 mph 2 mph 92% 0 in 9 W/m2
16:01 37.2 °F 35.4 °F 30 in East 2 mph 3 mph 93% 0 in 9 W/m2
16:06 37 °F 34.9 °F 30 in ESE 0.9 mph 2 mph 92% 0 in 7 W/m2
16:11 37 °F 35.2 °F 30 in ESE 2 mph 3 mph 93% 0 in 9 W/m2
16:16 37 °F 35.2 °F 30 in ESE 6 mph 6 mph 93% 0 in 7 W/m2
16:21 37 °F 35.2 °F 30 in ESE 0.9 mph 3 mph 93% 0 in 5 W/m2
16:26 36.9 °F 35.1 °F 30 in ESE 2 mph 4 mph 93% 0 in 5 W/m2
16:31 36.9 °F 35.1 °F 30 in ENE 2 mph 4 mph 93% 0 in 0 W/m2
16:36 36.7 °F 35.1 °F 30 in Calm   3 mph 94% 0 in 0 W/m2
16:41 36.7 °F 34.9 °F 30 in Calm   2 mph 93% 0 in 0 W/m2
16:46 36.7 °F 35.1 °F 30 in Calm   3 mph 94% 0 in 0 W/m2
16:51 36.5 °F 34.9 °F 30 in Calm   1 mph 94% 0 in 0 W/m2
16:56 36.3 °F 34.7 °F 30 in East 2 mph 3 mph 94% 0 in 0 W/m2
17:01 36.3 °F 34.7 °F 30 in Calm   2 mph 94% 0 in 0 W/m2
17:06 36.3 °F 34.7 °F 30 in ESE 0.9 mph 2 mph 94% 0 in 0 W/m2
17:11 36.3 °F 34.7 °F 30 in ESE 0.9 mph 1 mph 94% 0 in 0 W/m2
17:16 36.3 °F 34.7 °F 30 in Calm   1 mph 94% 0 in 0 W/m2
17:21 36.3 °F 34.7 °F 30 in ESE 0.9 mph 2 mph 94% 0 in 0 W/m2
17:26 36.1 °F 34.5 °F 30 in Calm     94% 0 in 0 W/m2
17:31 36.1 °F 34.5 °F 30 in Calm     94% 0 in 0 W/m2
17:36 36.1 °F 34.5 °F 30 in Calm   1 mph 94% 0 in 0 W/m2
17:41 36.1 °F 34.5 °F 30 in ESE 0.9 mph 2 mph 94% 0 in 0 W/m2
17:46 36.3 °F 34.7 °F 30 in Calm   2 mph 94% 0 in 0 W/m2
17:51 36.3 °F 34.7 °F 29.9 in ESE 0.9 mph 1 mph 94% 0 in 0 W/m2
17:56 36.3 °F 34.7 °F 30 in Calm   2 mph 94% 0 in 0 W/m2
18:01 36.1 °F 34.5 °F 30 in ESE 2 mph 2 mph 94% 0 in 0 W/m2
18:06 36.1 °F 34.5 °F 29.9 in East 0.9 mph 2 mph 94% 0 in 0 W/m2
18:11 36.1 °F 34.5 °F 30 in Calm     94% 0 in 0 W/m2
18:16 36 °F 34.3 °F 30 in Calm   1 mph 94% 0 in 0 W/m2
18:21 36 °F 34.3 °F 30 in ESE 2 mph 3 mph 94% 0 in 0 W/m2
18:26 36 °F 34.3 °F 30 in Calm     94% 0 in 0 W/m2
18:31 36 °F 34.3 °F 30 in Calm   1 mph 94% 0 in 0 W/m2
18:36 36 °F 34.7 °F 30 in ESE 0.9 mph 2 mph 95% 0 in 0 W/m2
18:41 36 °F 34.3 °F 30 in SE 0.9 mph 2 mph 94% 0 in 0 W/m2
18:46 36 °F 34.3 °F 30 in ESE 0.9 mph 2 mph 94% 0 in 0 W/m2
18:51 35.8 °F 34.5 °F 30 in Calm   1 mph 95% 0 in 0 W/m2
18:56 35.8 °F 34.5 °F 30 in Calm   1 mph 95% 0 in 0 W/m2
19:01 35.8 °F 34.5 °F 30 in Calm   3 mph 95% 0 in 0 W/m2
19:06 35.6 °F 34.3 °F 30 in Calm   1 mph 95% 0 in 0 W/m2
19:11 35.6 °F 34.3 °F 30 in Calm   3 mph 95% 0 in 0 W/m2
19:16 35.4 °F 34.2 °F 30 in East 0.9 mph 2 mph 95% 0 in 0 W/m2
19:21 35.4 °F 34.2 °F 29.9 in Calm     95% 0 in 0 W/m2
19:26 35.4 °F 34.2 °F 29.9 in Calm   1 mph 95% 0 in 0 W/m2
19:31 35.4 °F 34.2 °F 29.9 in Calm   2 mph 95% 0 in 0 W/m2
19:36 35.4 °F 34.2 °F 29.9 in Calm   1 mph 95% 0 in 0 W/m2
19:41 35.4 °F 34.2 °F 29.9 in Calm   2 mph 95% 0 in 0 W/m2
19:46 35.2 °F 34 °F 29.9 in Calm   3 mph 95% 0 in 0 W/m2
19:52 35.2 °F 34 °F 29.9 in Calm   2 mph 95% 0 in 0 W/m2
19:57 35.2 °F 34 °F 29.9 in Calm     95% 0 in 0 W/m2
20:02 35.2 °F 34 °F 29.9 in Calm     95% 0 in 0 W/m2
20:07 35.2 °F 34 °F 29.9 in Calm     95% 0 in 0 W/m2
20:12 35.2 °F 34 °F 29.9 in East 2 mph 2 mph 95% 0 in 0 W/m2
20:17 35.2 °F 34 °F 29.9 in Calm   2 mph 95% 0 in 0 W/m2
20:22 35.2 °F 34 °F 29.9 in Calm   2 mph 95% 0 in 0 W/m2
20:27 35.2 °F 34 °F 29.9 in Calm     95% 0 in 0 W/m2
20:32 35.2 °F 34 °F 29.9 in Calm     95% 0 in 0 W/m2
20:37 35.2 °F 34 °F 29.9 in Calm     95% 0 in 0 W/m2
20:42 35.2 °F 34 °F 29.9 in Calm     95% 0 in 0 W/m2
20:47 35.2 °F 34 °F 29.9 in Calm     95% 0 in 0 W/m2
20:52 35.2 °F 34 °F 29.9 in Calm     95% 0 in 0 W/m2
20:57 35.2 °F 34 °F 29.9 in Calm     95% 0 in 0 W/m2
21:02 35.2 °F 34 °F 29.9 in Calm     95% 0 in 0 W/m2
21:07 35.2 °F 34 °F 29.9 in ESE 0.9 mph 1 mph 95% 0 in 0 W/m2
21:12 35.2 °F 34 °F 29.9 in Calm     95% 0 in 0 W/m2
21:17 35.2 °F 34 °F 29.9 in Calm   2 mph 95% 0 in 0 W/m2
21:22 35.2 °F 34 °F 29.9 in ESE 0.9 mph 2 mph 95% 0 in 0 W/m2
21:27 35.2 °F 34 °F 29.9 in ESE 0.9 mph 2 mph 95% 0 in 0 W/m2
21:32 35.2 °F 34 °F 29.9 in Calm   2 mph 95% 0 in 0 W/m2
21:37 35.4 °F 34.2 °F 29.9 in Calm     95% 0 in 0 W/m2
21:42 35.4 °F 34.2 °F 29.9 in Calm   2 mph 95% 0 in 0 W/m2
21:47 35.4 °F 34.2 °F 29.9 in Calm     95% 0 in 0 W/m2
21:52 35.4 °F 34.2 °F 29.9 in Calm     95% 0 in 0 W/m2
21:57 35.4 °F 34.2 °F 29.9 in Calm     95% 0 in 0 W/m2
22:02 35.4 °F 34.2 °F 29.9 in Calm     95% 0 in 0 W/m2
22:07 35.4 °F 34.2 °F 29.9 in Calm   1 mph 95% 0 in 0 W/m2
22:12 35.4 °F 34.2 °F 29.9 in Calm     95% 0 in 0 W/m2
22:17 35.4 °F 34.2 °F 29.9 in Calm   3 mph 95% 0 in 0 W/m2
22:22 35.4 °F 34.2 °F 29.9 in Calm   3 mph 95% 0 in 0 W/m2
22:27 35.4 °F 34.2 °F 29.9 in ESE 0.9 mph 2 mph 95% 0 in 0 W/m2
22:32 35.6 °F 34.3 °F 29.9 in Calm   3 mph 95% 0 in 0 W/m2
22:37 35.6 °F 34.3 °F 29.9 in Calm     95% 0 in 0 W/m2
22:42 35.6 °F 34.3 °F 29.9 in Calm   2 mph 95% 0 in 0 W/m2
22:47 35.4 °F 34.2 °F 29.9 in Calm   3 mph 95% 0 in 0 W/m2
22:52 35.4 °F 34.2 °F 29.9 in Calm   2 mph 95% 0 in 0 W/m2
22:57 35.4 °F 34.2 °F 29.9 in ESE 2 mph 2 mph 95% 0 in 0 W/m2
23:02 35.4 °F 34.2 °F 29.9 in Calm     95% 0 in 0 W/m2
23:07 35.4 °F 34.2 °F 29.9 in Calm     95% 0 in 0 W/m2
23:12 35.4 °F 34.2 °F 29.9 in Calm   2 mph 95% 0 in 0 W/m2
23:17 35.4 °F 34.2 °F 29.9 in Calm   2 mph 95% 0 in 0 W/m2
23:22 35.4 °F 34.2 °F 29.9 in Calm     95% 0 in 0 W/m2
23:27 35.4 °F 34.2 °F 29.9 in Calm   2 mph 95% 0 in 0 W/m2
23:32 35.4 °F 34.2 °F 29.9 in Calm     95% 0 in 0 W/m2
23:37 35.2 °F 34 °F 29.9 in Calm     95% 0 in 0 W/m2
23:42 35.2 °F 34 °F 29.9 in Calm     95% 0.01 in 0 W/m2
23:47 35.2 °F 34 °F 29.9 in Calm     95% 0.01 in 0 W/m2
23:52 35.2 °F 34 °F 29.9 in Calm     95% 0.02 in 0 W/m2
23:57 35.1 °F 33.8 °F 29.9 in Calm     95% 0.02 in 0 W/m2
Juneau County Weather
Compliments of Weather Underground - 4 mb